Time;durP1;ratioP1;P1;durP2;ratioP2;P2;SDS_P1;SDS_P2;PMS_P1;PMS_P2;Temp;Humidity;BMP_temperature;BMP_pressure;BME280_temperature;BME280_humidity;BME280_pressure;Samples;Min_cycle;Max_cycle;Signal;HPM_P1;HPM_P2
2021/09/19 00:04:15;;;;;;;;;;;14.00;99.90;;;12.94;96.35;95444.00;10559167;28;1949;-75
2021/09/19 00:09:18;;;;;;;;;;;14.10;99.90;;;12.89;97.00;95441.38;10543066;28;2148;-76
2021/09/19 00:14:20;;;;;;;;;;;14.00;99.90;;;12.85;96.94;95434.16;10554566;28;2475;-74
2021/09/19 00:19:24;;;;;;;;;;;13.90;99.90;;;12.94;97.31;95437.81;10567268;28;2154;-73
2021/09/19 00:24:27;;;;;;;;;;;13.90;99.90;;;12.82;97.76;95440.16;10565617;28;2133;-74
2021/09/19 00:29:29;;;;;;;;;;;13.90;99.90;;;12.86;97.52;95441.19;10554956;28;2087;-74
2021/09/19 00:34:32;;;;;;;;;;;13.80;99.90;;;12.71;98.20;95434.13;10544998;28;2011;-73
2021/09/19 00:39:35;;;;;;;;;;;13.80;99.90;;;12.87;97.17;95432.00;10552745;28;2215;-75
2021/09/19 00:44:38;;;;;;;;;;;13.80;99.90;;;12.84;97.98;95436.06;10561804;28;2129;-75
2021/09/19 00:49:41;;;;;;;;;;;13.80;99.90;;;12.89;97.93;95432.50;10561013;28;2056;-75
2021/09/19 00:54:43;;;;;;;;;;;13.90;99.90;;;12.77;97.42;95426.75;10563944;27;2078;-75
2021/09/19 00:59:46;;;;;;;;;;;13.80;99.90;;;12.60;98.62;95416.53;10552116;28;1997;-75
2021/09/19 01:04:49;;;;;;;;;;;13.80;99.90;;;12.41;99.59;95419.25;10556273;28;2272;-74
2021/09/19 01:09:52;;;;;;;;;;;13.60;99.90;;;12.33;100.00;95418.00;10563791;28;2094;-75
2021/09/19 01:14:55;;;;;;;;;;;13.50;99.90;;;12.42;100.00;95402.78;10563731;28;2051;-75
2021/09/19 01:19:58;;;;;;;;;;;13.50;99.90;;;12.35;100.00;95407.75;10563855;28;2037;-74
2021/09/19 01:25:21;;;;;;;;;;;13.40;99.90;;;12.04;100.00;95399.31;10557606;28;2105;-74
2021/09/19 01:30:31;;;;;;;;;;;13.30;99.90;;;12.04;100.00;95403.91;10525458;28;2177;-74
2021/09/19 01:35:34;;;;;;;;;;;13.00;99.90;;;12.32;100.00;95399.44;10551315;28;2021;-74
2021/09/19 01:40:37;;;;;;;;;;;13.10;99.90;;;12.39;100.00;95397.16;10532111;28;2198;-73
2021/09/19 01:45:40;;;;;;;;;;;13.30;99.90;;;12.30;100.00;95397.06;10564111;28;2091;-73
2021/09/19 01:50:43;;;;;;;;;;;13.40;99.90;;;12.49;99.98;95386.25;10550887;28;2071;-75
2021/09/19 01:55:46;;;;;;;;;;;13.50;99.90;;;12.12;100.00;95390.56;10541264;28;2144;-74
2021/09/19 02:00:49;;;;;;;;;;;13.30;99.90;;;12.25;100.00;95382.84;10529369;28;2123;-74
2021/09/19 02:05:52;;;;;;;;;;;13.20;99.90;;;12.22;100.00;95370.78;10561925;28;2173;-73
2021/09/19 02:10:54;;;;;;;;;;;13.20;99.90;;;11.99;100.00;95369.75;10536018;28;2020;-74
2021/09/19 02:15:57;;;;;;;;;;;13.10;99.90;;;12.06;100.00;95364.00;10556791;28;2102;-74
2021/09/19 02:21:00;;;;;;;;;;;13.10;99.90;;;11.90;100.00;95366.94;10548941;28;2029;-74
2021/09/19 02:26:03;;;;;;;;;;;13.10;99.90;;;12.15;100.00;95351.47;10552645;28;2134;-74
2021/09/19 02:31:06;;;;;;;;;;;13.00;99.90;;;11.98;100.00;95352.00;10570682;28;2129;-74
2021/09/19 02:36:08;;;;;;;;;;;13.00;99.90;;;12.03;100.00;95353.84;10568145;28;2005;-73
2021/09/19 02:41:11;;;;;;;;;;;13.00;99.90;;;12.02;100.00;95352.19;10539748;28;2159;-74
2021/09/19 02:46:14;;;;;;;;;;;13.10;99.90;;;12.05;100.00;95335.47;10563445;28;2056;-74
2021/09/19 02:51:17;;;;;;;;;;;13.00;99.90;;;11.95;100.00;95320.25;10565965;28;2016;-74
2021/09/19 02:56:20;;;;;;;;;;;13.00;99.90;;;11.87;100.00;95329.78;10562330;28;2082;-74
2021/09/19 03:01:23;;;;;;;;;;;12.90;99.90;;;11.71;100.00;95325.72;10566928;27;2134;-73
2021/09/19 03:06:26;;;;;;;;;;;12.90;99.90;;;11.87;100.00;95324.41;10561870;28;2161;-73
2021/09/19 03:11:29;;;;;;;;;;;12.90;99.90;;;11.82;100.00;95315.59;10563696;28;2150;-74
2021/09/19 03:16:32;;;;;;;;;;;12.90;99.90;;;11.19;100.00;95297.88;10558502;28;2118;-75
2021/09/19 03:21:34;;;;;;;;;;;12.40;99.90;;;10.71;100.00;95295.22;10563936;27;2036;-75
2021/09/19 03:26:37;;;;;;;;;;;12.00;99.90;;;11.02;100.00;95292.19;10556561;28;2181;-75
2021/09/19 03:31:40;;;;;;;;;;;11.90;99.90;;;11.26;100.00;95303.72;10562543;28;2187;-74
2021/09/19 03:36:43;;;;;;;;;;;12.10;99.90;;;10.75;100.00;95277.44;10566254;28;2048;-74
2021/09/19 03:41:46;;;;;;;;;;;12.20;99.90;;;10.98;100.00;95283.88;10570772;28;2154;-74
2021/09/19 03:46:48;;;;;;;;;;;12.00;99.90;;;11.04;100.00;95280.03;10559658;28;2135;-75
2021/09/19 03:51:51;;;;;;;;;;;12.10;99.90;;;11.10;100.00;95275.41;10561027;28;1977;-76
2021/09/19 03:56:54;;;;;;;;;;;12.00;99.90;;;11.29;100.00;95280.81;10557210;28;2177;-75
2021/09/19 04:01:57;;;;;;;;;;;12.10;99.90;;;11.25;100.00;95275.19;10556582;28;2106;-74
2021/09/19 04:07:00;;;;;;;;;;;12.20;99.90;;;11.05;100.00;95278.16;10553229;28;2141;-75
2021/09/19 04:12:03;;;;;;;;;;;12.10;99.90;;;11.16;100.00;95278.81;10562677;28;2118;-75
2021/09/19 04:17:06;;;;;;;;;;;12.10;99.90;;;11.26;100.00;95276.81;10545211;28;2044;-74
2021/09/19 04:22:09;;;;;;;;;;;12.20;99.90;;;11.20;100.00;95277.16;10567745;28;2291;-75
2021/09/19 04:27:12;;;;;;;;;;;12.20;99.90;;;11.00;100.00;95288.97;10554931;28;2170;-75
2021/09/19 04:32:15;;;;;;;;;;;12.20;99.90;;;11.32;100.00;95288.28;10565909;28;2116;-75
2021/09/19 04:37:18;;;;;;;;;;;12.20;99.90;;;11.35;100.00;95291.22;10557121;28;2166;-74
2021/09/19 04:42:22;;;;;;;;;;;12.30;99.90;;;11.40;100.00;95297.63;10560546;28;2063;-75
2021/09/19 04:47:25;;;;;;;;;;;12.40;99.90;;;11.31;100.00;95303.63;10536401;28;2053;-75
2021/09/19 04:52:29;;;;;;;;;;;12.30;99.90;;;11.24;100.00;95305.88;10556351;28;2123;-75
2021/09/19 04:57:31;;;;;;;;;;;12.30;99.90;;;11.13;100.00;95290.16;10551779;28;2166;-75
2021/09/19 05:02:35;;;;;;;;;;;12.20;99.90;;;11.16;100.00;95298.47;10532403;28;2168;-74
2021/09/19 05:07:38;;;;;;;;;;;12.20;99.90;;;11.13;100.00;95304.41;10554405;28;2278;-74
2021/09/19 05:12:41;;;;;;;;;;;12.10;99.90;;;11.28;100.00;95306.91;10557686;28;2122;-74
2021/09/19 05:17:44;;;;;;;;;;;12.20;99.90;;;11.24;100.00;95299.69;10562383;28;2067;-74
2021/09/19 05:22:47;;;;;;;;;;;12.20;99.90;;;11.14;100.00;95308.72;10565393;28;2064;-74
2021/09/19 05:27:51;;;;;;;;;;;12.10;99.90;;;11.14;100.00;95310.59;10557979;28;2198;-75
2021/09/19 05:32:54;;;;;;;;;;;12.10;99.90;;;11.15;100.00;95312.19;10543092;28;2188;-74
2021/09/19 05:37:57;;;;;;;;;;;12.10;99.90;;;11.47;100.00;95316.91;10557542;28;2159;-75
2021/09/19 05:43:00;;;;;;;;;;;12.20;99.90;;;11.37;100.00;95321.31;10552144;28;2127;-75
2021/09/19 05:48:02;;;;;;;;;;;12.30;99.90;;;11.32;100.00;95326.78;10544968;28;2091;-75
2021/09/19 05:53:05;;;;;;;;;;;12.30;99.90;;;11.53;99.10;95326.50;10552590;28;2075;-74
2021/09/19 05:58:08;;;;;;;;;;;12.50;99.90;;;11.55;99.25;95321.63;10555639;28;2224;-74
2021/09/19 06:03:11;;;;;;;;;;;12.40;99.90;;;11.38;99.62;95309.44;10562275;28;2024;-73
2021/09/19 06:08:14;;;;;;;;;;;12.50;99.90;;;11.18;100.00;95309.72;10556243;28;2267;-74
2021/09/19 06:13:17;;;;;;;;;;;12.30;99.90;;;11.26;100.00;95298.34;10555863;28;2162;-75
2021/09/19 06:18:20;;;;;;;;;;;12.20;99.90;;;11.64;99.49;95293.78;10547204;28;2115;-75
2021/09/19 06:23:22;;;;;;;;;;;12.40;99.90;;;11.75;97.24;95293.59;10558901;28;2265;-74
2021/09/19 06:28:25;;;;;;;;;;;12.70;99.90;;;11.60;99.18;95291.94;10559784;28;2166;-74
2021/09/19 06:33:29;;;;;;;;;;;12.50;99.90;;;11.12;100.00;95297.41;10564580;28;2051;-74
2021/09/19 06:38:32;;;;;;;;;;;12.40;99.90;;;11.73;99.22;95291.22;10562189;28;2068;-74
2021/09/19 06:43:35;;;;;;;;;;;12.40;99.90;;;12.04;97.01;95296.16;10564150;28;2135;-75
2021/09/19 06:48:37;;;;;;;;;;;12.80;99.90;;;11.09;100.00;95293.44;10558359;28;2223;-74
2021/09/19 06:53:40;;;;;;;;;;;12.50;99.90;;;12.20;96.40;95296.69;10575870;28;2311;-74
2021/09/19 06:58:43;;;;;;;;;;;12.80;99.90;;;11.69;98.49;95290.19;10582842;28;1992;-74
2021/09/19 07:03:46;;;;;;;;;;;12.90;99.90;;;12.33;95.27;95282.44;10579769;28;2080;-75
2021/09/19 07:08:49;;;;;;;;;;;13.00;99.90;;;12.48;92.91;95284.09;10567670;28;2254;-73
2021/09/19 07:13:52;;;;;;;;;;;13.30;99.90;;;12.24;95.09;95292.31;10559020;28;2154;-74
2021/09/19 07:18:55;;;;;;;;;;;13.30;99.90;;;11.23;98.80;95292.72;10561394;27;2165;-74
2021/09/19 07:23:58;;;;;;;;;;;13.00;99.90;;;11.08;100.00;95297.22;10565244;28;2139;-74
2021/09/19 07:29:00;;;;;;;;;;;12.30;99.90;;;11.94;100.00;95288.22;10552747;28;2145;-74
2021/09/19 07:34:03;;;;;;;;;;;12.50;99.90;;;12.97;92.54;95297.69;10564948;28;1973;-74
2021/09/19 07:39:06;;;;;;;;;;;13.30;99.90;;;12.90;91.42;95291.09;10582754;28;2286;-73
2021/09/19 07:44:09;;;;;;;;;;;13.70;99.90;;;12.22;96.16;95302.63;10571460;28;1973;-75
2021/09/19 07:49:12;;;;;;;;;;;13.60;99.90;;;12.04;96.94;95302.34;10574381;28;2178;-75
2021/09/19 07:54:15;;;;;;;;;;;13.50;99.90;;;12.22;97.63;95310.69;10578847;28;1992;-74
2021/09/19 07:59:17;;;;;;;;;;;13.20;99.90;;;12.54;95.71;95317.97;10563955;28;2188;-75
2021/09/19 08:04:20;;;;;;;;;;;13.10;99.90;;;12.67;94.64;95314.47;10570926;28;2083;-75
2021/09/19 08:09:23;;;;;;;;;;;13.50;99.90;;;12.62;95.06;95312.69;10584245;28;2137;-74
2021/09/19 08:14:26;;;;;;;;;;;13.60;99.90;;;12.99;92.14;95321.72;10573223;28;2134;-74
2021/09/19 08:19:29;;;;;;;;;;;13.80;99.90;;;13.78;88.67;95316.81;10555925;28;2016;-74
2021/09/19 08:24:32;;;;;;;;;;;14.30;99.90;;;14.49;84.42;95319.75;10541548;27;2059;-74
2021/09/19 08:29:34;;;;;;;;;;;14.90;99.90;;;13.57;89.35;95314.88;10554894;28;2091;-74
2021/09/19 08:34:41;;;;;;;;;;;15.00;99.90;;;13.78;88.09;95321.44;10555108;28;2222;-76
2021/09/19 08:39:44;;;;;;;;;;;14.90;99.90;;;14.05;86.57;95315.13;10548919;28;2033;-75
2021/09/19 08:44:46;;;;;;;;;;;15.10;99.90;;;13.09;93.73;95321.50;10569747;28;2121;-76
2021/09/19 08:49:49;;;;;;;;;;;14.70;99.90;;;13.48;91.52;95323.69;10564434;28;2036;-73
2021/09/19 08:54:53;;;;;;;;;;;14.70;99.90;;;13.33;92.80;95318.63;10563734;28;2150;-73
2021/09/19 08:59:56;;;;;;;;;;;14.70;99.90;;;13.31;93.91;95318.13;10560419;28;2118;-72
2021/09/19 09:05:00;;;;;;;;;;;14.40;99.90;;;13.84;92.24;95320.22;10565758;28;2138;-74
2021/09/19 09:10:03;;;;;;;;;;;14.50;99.90;;;14.10;90.90;95315.00;10552924;28;2500;-75
2021/09/19 09:15:07;;;;;;;;;;;14.90;99.90;;;14.60;88.76;95312.97;10557943;28;2111;-74
2021/09/19 09:20:09;;;;;;;;;;;15.10;99.90;;;15.10;84.94;95312.72;10549748;28;2226;-73
2021/09/19 09:25:12;;;;;;;;;;;15.80;99.90;;;15.72;81.97;95311.00;10556850;28;2169;-75
2021/09/19 09:30:15;;;;;;;;;;;16.30;99.90;;;15.33;83.53;95305.34;10565497;28;2087;-76
2021/09/19 09:35:18;;;;;;;;;;;16.30;99.90;;;16.43;78.05;95304.13;10539875;28;2145;-76
2021/09/19 09:40:26;;;;;;;;;;;16.60;99.90;;;16.33;78.42;95306.38;10569006;28;2006;-75
2021/09/19 09:45:30;;;;;;;;;;;17.20;99.90;;;15.83;80.73;95302.22;10560271;28;2311;-77
2021/09/19 09:50:33;;;;;;;;;;;17.20;99.90;;;16.34;79.61;95299.81;10555808;28;2088;-75
2021/09/19 09:55:36;;;;;;;;;;;17.10;99.90;;;16.59;78.90;95298.97;10554549;28;2151;-75
2021/09/19 10:00:39;;;;;;;;;;;17.30;99.90;;;16.02;80.82;95295.69;10559528;28;2076;-77
2021/09/19 10:05:42;;;;;;;;;;;17.20;99.90;;;15.96;81.86;95284.22;10562215;28;2085;-77
2021/09/19 10:10:44;;;;;;;;;;;17.00;99.90;;;15.94;80.61;95276.41;10552803;28;2008;-76
2021/09/19 10:15:47;;;;;;;;;;;16.90;99.90;;;15.89;80.29;95273.84;10554716;28;2150;-76
2021/09/19 10:20:50;;;;;;;;;;;16.80;99.90;;;16.26;79.93;95287.06;10563391;28;2127;-77
2021/09/19 10:25:53;;;;;;;;;;;16.70;99.90;;;16.06;80.32;95274.97;10561606;28;2185;-78
2021/09/19 10:30:56;;;;;;;;;;;17.00;99.90;;;16.58;77.44;95281.09;10568485;28;2024;-76
2021/09/19 10:35:59;;;;;;;;;;;17.30;99.90;;;16.20;79.70;95270.97;10571394;28;2065;-77
2021/09/19 10:41:04;;;;;;;;;;;17.20;99.90;;;16.31;78.00;95273.34;10539238;28;2163;-76
2021/09/19 10:46:07;;;;;;;;;;;17.30;99.90;;;16.84;75.73;95274.81;10556914;28;2076;-77
2021/09/19 10:51:10;;;;;;;;;;;17.60;99.90;;;17.02;74.32;95268.22;10549595;28;2106;-76
2021/09/19 10:56:13;;;;;;;;;;;17.70;99.90;;;17.00;72.63;95271.25;10565097;28;2170;-77
2021/09/19 11:01:16;;;;;;;;;;;17.90;99.90;;;16.82;74.48;95271.66;10541664;28;2064;-76
2021/09/19 11:06:20;;;;;;;;;;;17.90;99.90;;;16.62;73.55;95267.69;10536933;27;2226;-77
2021/09/19 11:11:23;;;;;;;;;;;17.70;99.90;;;16.65;72.68;95267.81;10563773;27;2130;-77
2021/09/19 11:16:25;;;;;;;;;;;17.50;99.90;;;16.58;72.67;95267.53;10575130;27;2024;-76
2021/09/19 11:21:28;;;;;;;;;;;17.60;99.90;;;16.20;73.40;95267.47;10559323;28;2161;-77
2021/09/19 11:26:31;;;;;;;;;;;17.40;99.90;;;16.38;71.56;95258.19;10543493;28;2101;-77
2021/09/19 11:31:34;;;;;;;;;;;17.30;99.90;;;17.02;69.66;95265.50;10583019;27;2200;-77
2021/09/19 11:36:38;;;;;;;;;;;17.60;99.90;;;17.19;67.85;95259.19;10576628;27;2051;-77
2021/09/19 11:41:41;;;;;;;;;;;18.00;99.90;;;17.33;67.64;95270.59;10568467;28;2137;-77
2021/09/19 11:46:44;;;;;;;;;;;18.20;99.90;;;18.02;63.30;95274.78;10561534;28;2020;-76
2021/09/19 11:51:47;;;;;;;;;;;18.50;99.90;;;18.46;62.51;95267.03;10540324;28;2092;-77
2021/09/19 11:56:50;;;;;;;;;;;19.10;99.90;;;18.73;63.46;95273.81;10535281;28;1988;-76
2021/09/19 12:01:54;;;;;;;;;;;19.30;99.90;;;18.55;62.56;95273.16;10568376;28;2131;-77
2021/09/19 12:06:58;;;;;;;;;;;19.30;99.90;;;18.16;65.00;95269.06;10554195;28;2047;-77
2021/09/19 12:12:01;;;;;;;;;;;19.10;99.90;;;19.41;58.01;95274.09;10568471;27;2095;-77
2021/09/19 12:17:03;;;;;;;;;;;19.60;99.90;;;19.86;55.83;95263.03;10569441;27;1987;-77
2021/09/19 12:22:06;;;;;;;;;;;20.00;99.90;;;19.04;56.57;95268.63;10560614;27;2088;-76
2021/09/19 12:27:09;;;;;;;;;;;20.10;99.90;;;19.58;55.95;95273.84;10568157;28;2103;-78
2021/09/19 12:32:12;;;;;;;;;;;20.10;99.90;;;19.31;56.49;95261.72;10565711;27;1979;-77
2021/09/19 12:37:15;;;;;;;;;;;20.30;99.90;;;18.60;58.42;95270.25;10558769;27;2087;-76
2021/09/19 12:42:18;;;;;;;;;;;20.00;99.90;;;17.96;61.24;95260.59;10571441;28;1750;-76
2021/09/19 12:47:21;;;;;;;;;;;19.40;99.90;;;18.44;60.24;95255.66;10564783;28;2088;-76
2021/09/19 12:52:24;;;;;;;;;;;19.30;99.90;;;18.25;60.33;95246.09;10568214;28;2223;-76
2021/09/19 12:57:27;;;;;;;;;;;19.20;99.90;;;18.39;59.99;95239.56;10557031;28;2020;-75
2021/09/19 13:02:29;;;;;;;;;;;19.30;99.90;;;18.25;60.64;95243.38;10568532;28;1805;-76
2021/09/19 13:07:33;;;;;;;;;;;19.20;99.90;;;18.62;60.41;95238.03;10560754;28;2059;-76
2021/09/19 13:12:37;;;;;;;;;;;;;;;18.32;58.50;95240.91;10564273;28;1910;-75
2021/09/19 13:17:40;;;;;;;;;;;19.30;99.90;;;18.35;58.11;95240.22;10543639;28;1975;-76
2021/09/19 13:22:43;;;;;;;;;;;19.10;99.90;;;18.05;60.33;95233.31;10541995;28;1949;-76
2021/09/19 13:27:48;;;;;;;;;;;19.20;99.90;;;18.49;60.16;95228.25;10560439;28;1901;-77
2021/09/19 13:32:51;;;;;;;;;;;19.20;99.90;;;18.43;56.63;95229.59;10554854;28;2048;-76
2021/09/19 13:37:53;;;;;;;;;;;19.40;99.90;;;18.36;57.38;95230.94;10540152;28;2206;-77
2021/09/19 13:42:56;;;;;;;;;;;19.30;99.90;;;18.41;58.28;95231.84;10560153;28;2111;-76
2021/09/19 13:47:59;;;;;;;;;;;19.20;99.90;;;18.81;56.97;95229.34;10565725;28;1762;-77
2021/09/19 13:53:02;;;;;;;;;;;19.40;99.90;;;18.41;58.11;95229.13;10556922;28;2036;-77
2021/09/19 13:58:05;;;;;;;;;;;19.40;99.90;;;17.80;58.12;95227.78;10561428;28;1913;-77
2021/09/19 14:03:08;;;;;;;;;;;19.00;99.90;;;18.13;56.98;95228.91;10554227;28;1860;-76
2021/09/19 14:08:11;;;;;;;;;;;18.90;99.90;;;18.05;57.36;95219.72;10550185;28;2096;-77
2021/09/19 14:13:14;;;;;;;;;;;19.00;99.90;;;18.03;57.76;95216.56;10556869;28;1980;-77
2021/09/19 14:18:17;;;;;;;;;;;19.00;99.90;;;18.07;57.65;95214.75;10549076;28;2036;-75
2021/09/19 14:23:19;;;;;;;;;;;19.00;99.90;;;17.86;58.43;95222.13;10558346;28;2155;-75
2021/09/19 14:28:22;;;;;;;;;;;19.00;99.90;;;18.13;58.80;95220.75;10557175;28;2048;-76
2021/09/19 14:33:25;;;;;;;;;;;19.00;99.90;;;18.05;59.87;95231.38;10555961;28;1909;-77
2021/09/19 14:38:28;;;;;;;;;;;19.00;99.90;;;18.22;60.26;95230.44;10551981;28;1985;-77
2021/09/19 14:43:36;;;;;;;;;;;19.00;99.90;;;18.02;59.53;95242.16;10560363;28;1896;-77
2021/09/19 14:48:40;;;;;;;;;;;19.00;99.90;;;18.24;58.69;95239.06;10559370;28;2043;-77
2021/09/19 14:53:43;;;;;;;;;;;19.00;99.90;;;18.04;57.86;95242.63;10531880;28;2062;-77
2021/09/19 14:58:46;;;;;;;;;;;19.10;99.90;;;18.54;57.35;95244.38;10537719;28;1882;-77
2021/09/19 15:03:48;;;;;;;;;;;19.20;99.90;;;18.29;59.07;95246.22;10536675;28;2010;-76
2021/09/19 15:08:51;;;;;;;;;;;19.20;99.90;;;17.75;60.56;95249.75;10557697;28;2003;-77
2021/09/19 15:13:54;;;;;;;;;;;18.90;99.90;;;17.59;61.10;95256.06;10561590;28;1956;-78
2021/09/19 15:18:58;;;;;;;;;;;18.70;99.90;;;17.59;61.46;95261.50;10535139;28;2302;-76
2021/09/19 15:24:01;;;;;;;;;;;18.60;99.90;;;17.63;61.34;95252.34;10561001;28;2273;-76
2021/09/19 15:29:06;;;;;;;;;;;18.60;99.90;;;17.42;62.30;95246.09;10548711;28;2231;-77
2021/09/19 15:34:09;;;;;;;;;;;18.50;99.90;;;17.25;62.38;95253.25;10560465;28;2055;-76
2021/09/19 15:39:12;;;;;;;;;;;18.40;99.90;;;17.03;63.22;95250.78;10560962;28;1900;-76
2021/09/19 15:44:15;;;;;;;;;;;18.20;99.90;;;17.22;62.90;95264.75;10570506;28;2057;-77
2021/09/19 15:49:18;;;;;;;;;;;18.10;99.90;;;17.21;63.41;95257.72;10565555;28;2591;-76
2021/09/19 15:54:22;;;;;;;;;;;18.10;99.90;;;16.98;63.90;95253.69;10570406;28;1956;-77
2021/09/19 15:59:25;;;;;;;;;;;18.00;99.90;;;16.92;64.70;95260.41;10569459;28;1885;-77
2021/09/19 16:04:28;;;;;;;;;;;17.90;99.90;;;17.00;65.68;95265.81;10567183;28;1852;-76
2021/09/19 16:09:31;;;;;;;;;;;17.80;99.90;;;16.94;66.87;95260.91;10570834;28;2111;-77
2021/09/19 16:14:34;;;;;;;;;;;17.90;99.90;;;16.96;65.77;95266.78;10560702;28;2016;-76
2021/09/19 16:19:37;;;;;;;;;;;17.90;99.90;;;16.61;66.49;95274.25;10558316;28;2032;-76
2021/09/19 16:24:40;;;;;;;;;;;17.70;99.90;;;16.55;66.92;95276.34;10570749;28;2036;-76
2021/09/19 16:29:42;;;;;;;;;;;17.60;99.90;;;16.39;67.35;95272.53;10571949;28;1844;-78
2021/09/19 16:34:45;;;;;;;;;;;17.50;99.90;;;16.35;67.32;95275.09;10574388;27;2032;-77
2021/09/19 16:39:48;;;;;;;;;;;17.40;99.90;;;16.36;67.97;95282.13;10569685;28;1739;-76
2021/09/19 16:44:51;;;;;;;;;;;17.30;99.90;;;16.15;68.30;95281.97;10568143;28;2090;-76
2021/09/19 16:49:54;;;;;;;;;;;17.20;99.90;;;15.95;68.54;95275.28;10566311;28;2155;-77
2021/09/19 16:54:57;;;;;;;;;;;17.00;99.90;;;15.94;69.82;95289.16;10577486;28;2153;-79
2021/09/19 17:00:00;;;;;;;;;;;16.90;99.90;;;15.83;71.08;95299.50;10563540;28;2076;-76
2021/09/19 17:05:02;;;;;;;;;;;16.90;99.90;;;15.64;72.80;95305.25;10563530;28;1921;-77
2021/09/19 17:10:05;;;;;;;;;;;16.80;99.90;;;15.45;74.16;95298.47;10566743;27;1369;-76
2021/09/19 17:15:08;;;;;;;;;;;16.60;99.90;;;15.32;75.30;95306.41;10559447;28;1968;-77
2021/09/19 17:20:11;;;;;;;;;;;16.40;99.90;;;15.26;75.79;95309.59;10557698;28;1175;-78
2021/09/19 17:25:14;;;;;;;;;;;16.30;99.90;;;15.15;76.46;95317.22;10531337;28;1943;-79
2021/09/19 17:30:17;;;;;;;;;;;16.20;99.90;;;15.13;77.26;95322.94;10532991;28;1390;-76
2021/09/19 17:35:19;;;;;;;;;;;16.10;99.90;;;15.00;78.43;95337.38;10552252;27;2005;-78
2021/09/19 17:40:22;;;;;;;;;;;16.00;99.90;;;14.85;79.54;95340.50;10564839;27;1504;-78
2021/09/19 17:45:25;;;;;;;;;;;15.90;99.90;;;14.82;79.63;95344.63;10567545;27;1404;-76
2021/09/19 17:50:28;;;;;;;;;;;15.90;99.90;;;14.72;80.78;95353.00;10557905;27;1483;-78
2021/09/19 17:55:31;;;;;;;;;;;15.80;99.90;;;14.74;81.16;95352.69;10561184;28;1910;-76
2021/09/19 18:00:34;;;;;;;;;;;15.70;99.90;;;14.51;82.48;95360.84;10560577;28;1900;-77
2021/09/19 18:05:37;;;;;;;;;;;15.60;99.90;;;14.47;82.68;95361.75;10554860;28;2077;-77
2021/09/19 18:10:39;;;;;;;;;;;15.40;99.90;;;14.48;83.16;95369.53;10559988;28;2105;-76
2021/09/19 18:15:42;;;;;;;;;;;15.50;99.90;;;14.39;83.23;95376.78;10541965;28;2147;-77
2021/09/19 18:20:45;;;;;;;;;;;15.40;99.90;;;14.37;83.01;95372.75;10560310;28;1933;-76
2021/09/19 18:25:48;;;;;;;;;;;15.40;99.90;;;14.34;82.69;95379.59;10556796;28;2040;-78
2021/09/19 18:30:51;;;;;;;;;;;15.40;99.90;;;14.33;82.14;95391.53;10546660;28;1845;-77
2021/09/19 18:36:11;;;;;;;;;;;15.40;99.90;;;14.21;82.52;95402.06;10543487;28;2032;-78
2021/09/19 18:41:13;;;;;;;;;;;15.30;99.90;;;14.11;83.23;95403.09;10555780;28;1922;-75
2021/09/19 18:46:16;;;;;;;;;;;15.20;99.90;;;14.31;82.66;95423.44;10539084;28;1826;-75
2021/09/19 18:51:19;;;;;;;;;;;15.10;99.90;;;14.14;82.37;95432.22;10551667;28;2201;-76
2021/09/19 18:56:22;;;;;;;;;;;15.20;99.90;;;14.30;82.42;95440.78;10556626;28;1857;-76
2021/09/19 19:01:25;;;;;;;;;;;15.20;99.90;;;14.25;82.73;95452.53;10557976;28;2076;-76
2021/09/19 19:06:28;;;;;;;;;;;15.30;99.90;;;14.26;85.13;95456.03;10558424;28;2047;-76
2021/09/19 19:11:33;;;;;;;;;;;15.20;99.90;;;14.35;85.46;95454.19;10564308;28;2384;-75
2021/09/19 19:16:37;;;;;;;;;;;15.30;99.90;;;14.42;86.70;95459.97;10556689;28;2060;-76
2021/09/19 19:21:40;;;;;;;;;;;15.30;99.90;;;14.29;87.44;95455.41;10564850;28;1981;-77
2021/09/19 19:26:43;;;;;;;;;;;15.20;99.90;;;14.27;88.16;95457.63;10556823;28;2060;-75
2021/09/19 19:31:45;;;;;;;;;;;15.10;99.90;;;14.14;88.71;95456.56;10562501;28;1975;-77
2021/09/19 19:36:48;;;;;;;;;;;15.10;99.90;;;14.14;88.78;95463.88;10558864;28;2004;-75
2021/09/19 19:41:51;;;;;;;;;;;15.10;99.90;;;14.04;88.56;95465.66;10564766;28;1933;-75
2021/09/19 19:46:54;;;;;;;;;;;15.00;99.90;;;13.95;88.71;95483.72;10559492;28;2019;-74
2021/09/19 19:51:57;;;;;;;;;;;14.90;99.90;;;13.92;88.77;95478.88;10570592;28;1905;-75
2021/09/19 19:57:00;;;;;;;;;;;14.90;99.90;;;13.98;88.79;95482.28;10565871;28;2083;-73
2021/09/19 20:02:03;;;;;;;;;;;14.90;99.90;;;14.04;88.25;95476.47;10564752;28;2459;-74
2021/09/19 20:07:06;;;;;;;;;;;14.90;99.90;;;13.99;88.68;95490.09;10537313;28;2183;-74
2021/09/19 20:12:10;;;;;;;;;;;14.90;99.90;;;13.71;89.64;95491.22;10560639;28;2293;-76
2021/09/19 20:17:13;;;;;;;;;;;14.80;99.90;;;13.70;89.89;95493.13;10556792;28;2068;-76
2021/09/19 20:22:16;;;;;;;;;;;14.60;99.90;;;13.88;89.29;95504.13;10560274;28;1810;-75
2021/09/19 20:27:18;;;;;;;;;;;14.70;99.90;;;13.77;89.97;95503.53;10560724;28;2044;-74
2021/09/19 20:32:21;;;;;;;;;;;14.70;99.90;;;13.56;91.52;95505.03;10581677;27;2107;-73
2021/09/19 20:37:24;;;;;;;;;;;14.60;99.90;;;13.58;91.71;95513.63;10619618;27;1857;-75
2021/09/19 20:42:27;;;;;;;;;;;14.50;99.90;;;13.53;91.33;95512.59;10600089;28;1812;-74
2021/09/19 20:47:30;;;;;;;;;;;14.50;99.90;;;13.54;92.34;95516.09;10617458;28;1911;-74
2021/09/19 20:52:33;;;;;;;;;;;14.40;99.90;;;13.69;91.63;95517.72;10611003;27;1964;-75
2021/09/19 20:57:36;;;;;;;;;;;14.50;99.90;;;13.71;91.51;95520.94;10579483;28;1919;-75
2021/09/19 21:02:40;;;;;;;;;;;14.60;99.90;;;13.50;92.06;95525.91;10577548;28;2198;-75
2021/09/19 21:07:43;;;;;;;;;;;14.50;99.90;;;13.64;91.34;95526.72;10596123;28;1868;-75
2021/09/19 21:12:46;;;;;;;;;;;14.60;99.90;;;13.39;93.35;95530.69;10570241;28;2028;-75
2021/09/19 21:17:49;;;;;;;;;;;14.50;99.90;;;13.51;93.14;95527.50;10557071;28;1677;-75
2021/09/19 21:22:52;;;;;;;;;;;14.40;99.90;;;13.45;92.74;95529.50;10586083;28;2050;-74
2021/09/19 21:27:55;;;;;;;;;;;14.40;99.90;;;13.23;89.66;95532.03;10598676;28;2004;-74
2021/09/19 21:32:59;;;;;;;;;;;14.30;99.90;;;12.94;87.34;95535.72;10598828;28;1931;-75
2021/09/19 21:38:01;;;;;;;;;;;14.10;99.90;;;12.64;89.31;95533.47;10596704;28;1618;-75
2021/09/19 21:43:04;;;;;;;;;;;13.70;99.90;;;12.59;89.80;95536.25;10575893;28;2091;-75
2021/09/19 21:48:07;;;;;;;;;;;13.60;99.90;;;13.19;86.78;95537.22;10571532;28;2004;-75
2021/09/19 21:53:10;;;;;;;;;;;13.90;99.90;;;12.98;86.27;95552.94;10558062;28;1913;-75
2021/09/19 21:58:13;;;;;;;;;;;14.00;99.90;;;12.95;87.79;95547.31;10537840;28;2089;-75
2021/09/19 22:03:16;;;;;;;;;;;13.90;99.90;;;12.96;88.21;95544.31;10557725;28;2036;-74
2021/09/19 22:08:24;;;;;;;;;;;13.90;99.90;;;12.92;87.27;95546.00;10555178;28;2067;-75
2021/09/19 22:13:34;;;;;;;;;;;13.90;99.90;;;12.99;87.49;95551.03;10557962;28;1968;-75
2021/09/19 22:18:36;;;;;;;;;;;13.90;99.90;;;12.89;88.18;95548.47;10554839;28;2095;-75
2021/09/19 22:23:39;;;;;;;;;;;13.90;99.90;;;12.98;87.20;95565.63;10555447;28;2015;-75
2021/09/19 22:28:42;;;;;;;;;;;13.90;99.90;;;13.17;86.90;95561.00;10566786;28;2047;-77
2021/09/19 22:33:45;;;;;;;;;;;13.90;99.90;;;12.90;86.86;95561.66;10552087;28;1975;-74
2021/09/19 22:38:48;;;;;;;;;;;13.90;99.90;;;12.68;86.59;95558.78;10557230;28;2036;-74
2021/09/19 22:43:51;;;;;;;;;;;13.80;99.90;;;12.63;87.61;95539.97;10559761;28;1908;-74
2021/09/19 22:48:54;;;;;;;;;;;13.60;99.90;;;12.68;86.98;95558.78;10561992;27;2116;-75
2021/09/19 22:54:16;;;;;;;;;;;13.60;99.90;;;12.68;87.90;95553.38;10558295;28;2040;-76
2021/09/19 22:59:39;;;;;;;;;;;13.50;99.90;;;12.69;87.51;95557.69;10568240;27;1725;-75
2021/09/19 23:04:42;;;;;;;;;;;13.60;99.90;;;12.63;88.77;95566.94;10566100;28;2079;-74
2021/09/19 23:09:45;;;;;;;;;;;13.50;99.90;;;12.56;88.17;95571.91;10541459;28;1993;-76
2021/09/19 23:14:51;;;;;;;;;;;13.60;99.90;;;12.37;89.14;95575.38;10568211;28;1906;-75